< < Back
Terminal Aerodrome Forecast


Current Version              Previous Versions:   1  2  3  4  5  6  7  8  9  

Terminal Aerodrome Forecast

054
FTUS42 KMLB 261749
TAFMCO
TAF
KMCO 261749Z 2618/2718 29009KT P6SM FEW025 OVC040
     FM270100 34008KT P6SM SCT025 OVC040
     FM270800 36010KT P6SM BKN025 OVC040=

Latest METAR

187
SAUS70 KWBC 270000 RRM
MTRMCO
METAR KMCO 262353Z 28003KT 10SM FEW040 BKN055 OVC075 19/14 A2996 RMK AO2
SLP143 T01890139 10222 20189 53022


USA.gov is the U.S. government's official web portal to all federal, state and local government web resources and services.